sensor_id;sensor_type;location;lat;lon;timestamp;P1;durP1;ratioP1;P2;durP2;ratioP2
64714;SDS011;51144;53.002;6.506;2022-10-29T00:01:48;18.33;;;3.28;;
64714;SDS011;51144;53.002;6.506;2022-10-29T00:04:13;23.45;;;3.05;;
64714;SDS011;51144;53.002;6.506;2022-10-29T00:06:39;24.92;;;3.25;;
64714;SDS011;51144;53.002;6.506;2022-10-29T00:09:05;23.85;;;3.15;;
64714;SDS011;51144;53.002;6.506;2022-10-29T00:11:31;16.67;;;2.80;;
64714;SDS011;51144;53.002;6.506;2022-10-29T00:13:58;25.75;;;2.70;;
64714;SDS011;51144;53.002;6.506;2022-10-29T00:16:26;17.98;;;2.90;;
64714;SDS011;51144;53.002;6.506;2022-10-29T00:18:54;20.33;;;2.72;;
64714;SDS011;51144;53.002;6.506;2022-10-29T00:21:22;18.77;;;3.60;;
64714;SDS011;51144;53.002;6.506;2022-10-29T00:23:49;21.00;;;3.08;;
64714;SDS011;51144;53.002;6.506;2022-10-29T00:26:16;16.92;;;3.03;;
64714;SDS011;51144;53.002;6.506;2022-10-29T00:28:43;16.35;;;2.83;;
64714;SDS011;51144;53.002;6.506;2022-10-29T00:31:14;16.00;;;3.05;;
64714;SDS011;51144;53.002;6.506;2022-10-29T00:33:42;21.33;;;2.60;;
64714;SDS011;51144;53.002;6.506;2022-10-29T00:36:10;23.60;;;3.65;;
64714;SDS011;51144;53.002;6.506;2022-10-29T00:38:38;18.80;;;2.90;;
64714;SDS011;51144;53.002;6.506;2022-10-29T00:41:04;16.48;;;2.40;;
64714;SDS011;51144;53.002;6.506;2022-10-29T00:43:34;26.23;;;3.58;;
64714;SDS011;51144;53.002;6.506;2022-10-29T00:46:08;20.05;;;3.05;;
64714;SDS011;51144;53.002;6.506;2022-10-29T00:48:45;19.35;;;2.58;;
64714;SDS011;51144;53.002;6.506;2022-10-29T00:51:14;21.77;;;2.67;;
64714;SDS011;51144;53.002;6.506;2022-10-29T00:53:43;24.67;;;2.83;;
64714;SDS011;51144;53.002;6.506;2022-10-29T00:56:39;22.30;;;3.83;;
64714;SDS011;51144;53.002;6.506;2022-10-29T00:59:17;18.33;;;3.42;;
64714;SDS011;51144;53.002;6.506;2022-10-29T01:01:43;23.30;;;3.28;;
64714;SDS011;51144;53.002;6.506;2022-10-29T01:04:10;12.82;;;2.80;;
64714;SDS011;51144;53.002;6.506;2022-10-29T01:06:36;21.20;;;2.92;;
64714;SDS011;51144;53.002;6.506;2022-10-29T01:09:03;32.15;;;3.53;;
64714;SDS011;51144;53.002;6.506;2022-10-29T01:16:57;57.85;;;4.25;;
64714;SDS011;51144;53.002;6.506;2022-10-29T01:22:19;18.65;;;2.78;;
64714;SDS011;51144;53.002;6.506;2022-10-29T01:25:00;16.85;;;3.10;;
64714;SDS011;51144;53.002;6.506;2022-10-29T01:27:39;18.70;;;2.72;;
64714;SDS011;51144;53.002;6.506;2022-10-29T01:32:54;12.40;;;2.67;;
64714;SDS011;51144;53.002;6.506;2022-10-29T01:35:31;19.33;;;3.58;;
64714;SDS011;51144;53.002;6.506;2022-10-29T01:40:49;23.85;;;4.22;;
64714;SDS011;51144;53.002;6.506;2022-10-29T01:43:41;17.80;;;3.20;;
64714;SDS011;51144;53.002;6.506;2022-10-29T01:46:24;21.05;;;3.25;;
64714;SDS011;51144;53.002;6.506;2022-10-29T01:48:56;20.15;;;3.20;;
64714;SDS011;51144;53.002;6.506;2022-10-29T01:51:28;26.17;;;2.95;;
64714;SDS011;51144;53.002;6.506;2022-10-29T01:53:57;19.65;;;3.58;;
64714;SDS011;51144;53.002;6.506;2022-10-29T01:56:24;22.13;;;3.65;;
64714;SDS011;51144;53.002;6.506;2022-10-29T01:58:51;19.17;;;3.75;;
64714;SDS011;51144;53.002;6.506;2022-10-29T02:01:28;17.38;;;3.90;;
64714;SDS011;51144;53.002;6.506;2022-10-29T02:10:20;30.80;;;4.00;;
64714;SDS011;51144;53.002;6.506;2022-10-29T02:12:52;26.92;;;4.13;;
64714;SDS011;51144;53.002;6.506;2022-10-29T02:18:06;11.93;;;3.65;;
64714;SDS011;51144;53.002;6.506;2022-10-29T02:20:32;61.72;;;4.65;;
64714;SDS011;51144;53.002;6.506;2022-10-29T02:22:59;45.67;;;3.03;;
64714;SDS011;51144;53.002;6.506;2022-10-29T02:25:24;63.85;;;3.90;;
64714;SDS011;51144;53.002;6.506;2022-10-29T02:27:50;38.47;;;3.40;;
64714;SDS011;51144;53.002;6.506;2022-10-29T02:30:16;96.63;;;5.28;;
64714;SDS011;51144;53.002;6.506;2022-10-29T02:32:42;52.28;;;3.10;;
64714;SDS011;51144;53.002;6.506;2022-10-29T02:35:08;36.45;;;3.38;;
64714;SDS011;51144;53.002;6.506;2022-10-29T02:37:34;69.95;;;3.55;;
64714;SDS011;51144;53.002;6.506;2022-10-29T02:40:00;113.07;;;4.32;;
64714;SDS011;51144;53.002;6.506;2022-10-29T02:42:26;102.03;;;4.03;;
64714;SDS011;51144;53.002;6.506;2022-10-29T02:44:51;100.90;;;4.28;;
64714;SDS011;51144;53.002;6.506;2022-10-29T02:47:17;45.63;;;3.47;;
64714;SDS011;51144;53.002;6.506;2022-10-29T02:49:43;55.47;;;3.13;;
64714;SDS011;51144;53.002;6.506;2022-10-29T02:52:08;42.60;;;3.38;;
64714;SDS011;51144;53.002;6.506;2022-10-29T02:54:34;116.68;;;4.63;;
64714;SDS011;51144;53.002;6.506;2022-10-29T02:56:59;74.38;;;4.78;;
64714;SDS011;51144;53.002;6.506;2022-10-29T02:59:25;75.97;;;5.03;;
64714;SDS011;51144;53.002;6.506;2022-10-29T03:01:51;48.47;;;4.72;;
64714;SDS011;51144;53.002;6.506;2022-10-29T03:04:16;36.40;;;5.53;;
64714;SDS011;51144;53.002;6.506;2022-10-29T03:06:42;23.70;;;6.25;;
64714;SDS011;51144;53.002;6.506;2022-10-29T03:09:08;27.85;;;5.85;;
64714;SDS011;51144;53.002;6.506;2022-10-29T03:11:33;35.38;;;6.10;;
64714;SDS011;51144;53.002;6.506;2022-10-29T03:13:59;32.88;;;7.65;;
64714;SDS011;51144;53.002;6.506;2022-10-29T03:16:24;25.00;;;6.03;;
64714;SDS011;51144;53.002;6.506;2022-10-29T03:18:50;20.10;;;5.80;;
64714;SDS011;51144;53.002;6.506;2022-10-29T03:21:16;21.42;;;6.18;;
64714;SDS011;51144;53.002;6.506;2022-10-29T03:23:41;13.90;;;6.43;;
64714;SDS011;51144;53.002;6.506;2022-10-29T03:26:07;12.15;;;6.40;;
64714;SDS011;51144;53.002;6.506;2022-10-29T03:28:34;18.83;;;6.65;;
64714;SDS011;51144;53.002;6.506;2022-10-29T03:31:00;13.25;;;7.30;;
64714;SDS011;51144;53.002;6.506;2022-10-29T03:33:26;16.73;;;5.85;;
64714;SDS011;51144;53.002;6.506;2022-10-29T03:35:59;14.40;;;7.78;;
64714;SDS011;51144;53.002;6.506;2022-10-29T03:38:26;14.32;;;6.95;;
64714;SDS011;51144;53.002;6.506;2022-10-29T03:40:52;17.05;;;7.45;;
64714;SDS011;51144;53.002;6.506;2022-10-29T03:43:18;14.45;;;6.82;;
64714;SDS011;51144;53.002;6.506;2022-10-29T03:45:48;18.05;;;7.40;;
64714;SDS011;51144;53.002;6.506;2022-10-29T03:48:23;17.30;;;7.40;;
64714;SDS011;51144;53.002;6.506;2022-10-29T03:50:56;21.42;;;7.55;;
64714;SDS011;51144;53.002;6.506;2022-10-29T03:53:24;26.33;;;8.02;;
64714;SDS011;51144;53.002;6.506;2022-10-29T03:55:50;27.02;;;7.97;;
64714;SDS011;51144;53.002;6.506;2022-10-29T03:58:17;26.92;;;8.00;;
64714;SDS011;51144;53.002;6.506;2022-10-29T04:00:42;30.98;;;8.52;;
64714;SDS011;51144;53.002;6.506;2022-10-29T04:03:08;34.53;;;8.95;;
64714;SDS011;51144;53.002;6.506;2022-10-29T04:05:34;46.90;;;9.25;;
64714;SDS011;51144;53.002;6.506;2022-10-29T04:07:59;35.67;;;9.15;;
64714;SDS011;51144;53.002;6.506;2022-10-29T04:10:25;45.15;;;9.95;;
64714;SDS011;51144;53.002;6.506;2022-10-29T04:12:51;51.00;;;9.88;;
64714;SDS011;51144;53.002;6.506;2022-10-29T04:15:17;50.80;;;11.35;;
64714;SDS011;51144;53.002;6.506;2022-10-29T04:17:43;45.25;;;10.18;;
64714;SDS011;51144;53.002;6.506;2022-10-29T04:20:08;50.40;;;10.55;;
64714;SDS011;51144;53.002;6.506;2022-10-29T04:22:34;54.63;;;9.95;;
64714;SDS011;51144;53.002;6.506;2022-10-29T04:25:00;44.00;;;10.35;;
64714;SDS011;51144;53.002;6.506;2022-10-29T04:27:26;75.78;;;11.40;;
64714;SDS011;51144;53.002;6.506;2022-10-29T04:29:52;81.15;;;11.38;;
64714;SDS011;51144;53.002;6.506;2022-10-29T04:32:18;61.17;;;11.45;;
64714;SDS011;51144;53.002;6.506;2022-10-29T04:34:43;43.63;;;9.80;;
64714;SDS011;51144;53.002;6.506;2022-10-29T04:37:09;60.25;;;10.75;;
64714;SDS011;51144;53.002;6.506;2022-10-29T04:39:35;56.38;;;10.95;;
64714;SDS011;51144;53.002;6.506;2022-10-29T04:42:00;61.85;;;10.90;;
64714;SDS011;51144;53.002;6.506;2022-10-29T04:44:26;42.05;;;10.35;;
64714;SDS011;51144;53.002;6.506;2022-10-29T04:46:51;61.05;;;12.05;;
64714;SDS011;51144;53.002;6.506;2022-10-29T04:49:17;44.40;;;10.20;;
64714;SDS011;51144;53.002;6.506;2022-10-29T04:51:42;60.28;;;10.65;;
64714;SDS011;51144;53.002;6.506;2022-10-29T04:54:08;53.40;;;10.90;;
64714;SDS011;51144;53.002;6.506;2022-10-29T04:56:34;70.65;;;13.23;;
64714;SDS011;51144;53.002;6.506;2022-10-29T04:59:00;83.72;;;11.13;;
64714;SDS011;51144;53.002;6.506;2022-10-29T05:01:25;72.75;;;12.35;;
64714;SDS011;51144;53.002;6.506;2022-10-29T05:03:51;88.88;;;12.50;;
64714;SDS011;51144;53.002;6.506;2022-10-29T05:06:16;101.88;;;12.63;;
64714;SDS011;51144;53.002;6.506;2022-10-29T05:08:42;73.32;;;11.95;;
64714;SDS011;51144;53.002;6.506;2022-10-29T05:11:07;91.97;;;11.77;;
64714;SDS011;51144;53.002;6.506;2022-10-29T05:13:33;78.47;;;11.88;;
64714;SDS011;51144;53.002;6.506;2022-10-29T05:15:59;78.57;;;12.52;;
64714;SDS011;51144;53.002;6.506;2022-10-29T05:18:25;73.95;;;11.85;;
64714;SDS011;51144;53.002;6.506;2022-10-29T05:20:54;121.32;;;15.43;;
64714;SDS011;51144;53.002;6.506;2022-10-29T05:23:20;66.43;;;12.35;;
64714;SDS011;51144;53.002;6.506;2022-10-29T05:25:46;72.85;;;13.23;;
64714;SDS011;51144;53.002;6.506;2022-10-29T05:28:20;82.63;;;13.77;;
64714;SDS011;51144;53.002;6.506;2022-10-29T05:30:48;96.20;;;15.75;;
64714;SDS011;51144;53.002;6.506;2022-10-29T05:33:15;68.30;;;13.30;;
64714;SDS011;51144;53.002;6.506;2022-10-29T05:35:43;112.53;;;13.68;;
64714;SDS011;51144;53.002;6.506;2022-10-29T05:38:09;79.13;;;13.60;;
64714;SDS011;51144;53.002;6.506;2022-10-29T05:40:36;98.72;;;13.88;;
64714;SDS011;51144;53.002;6.506;2022-10-29T05:43:01;119.05;;;13.90;;
64714;SDS011;51144;53.002;6.506;2022-10-29T05:45:27;61.50;;;13.90;;
64714;SDS011;51144;53.002;6.506;2022-10-29T05:47:56;99.60;;;17.50;;
64714;SDS011;51144;53.002;6.506;2022-10-29T05:50:22;92.40;;;15.63;;
64714;SDS011;51144;53.002;6.506;2022-10-29T05:55:23;108.45;;;18.05;;
64714;SDS011;51144;53.002;6.506;2022-10-29T05:57:53;67.05;;;16.00;;
64714;SDS011;51144;53.002;6.506;2022-10-29T06:00:20;78.57;;;17.48;;
64714;SDS011;51144;53.002;6.506;2022-10-29T06:02:46;64.43;;;16.60;;
64714;SDS011;51144;53.002;6.506;2022-10-29T06:05:11;60.05;;;16.23;;
64714;SDS011;51144;53.002;6.506;2022-10-29T06:07:37;58.88;;;16.35;;
64714;SDS011;51144;53.002;6.506;2022-10-29T06:10:03;59.28;;;17.10;;
64714;SDS011;51144;53.002;6.506;2022-10-29T06:12:32;55.60;;;16.80;;
64714;SDS011;51144;53.002;6.506;2022-10-29T06:14:58;84.20;;;19.88;;
64714;SDS011;51144;53.002;6.506;2022-10-29T06:17:24;74.85;;;19.95;;
64714;SDS011;51144;53.002;6.506;2022-10-29T06:19:50;93.88;;;21.67;;
64714;SDS011;51144;53.002;6.506;2022-10-29T06:22:15;92.28;;;20.70;;
64714;SDS011;51144;53.002;6.506;2022-10-29T06:24:41;67.30;;;19.58;;
64714;SDS011;51144;53.002;6.506;2022-10-29T06:27:06;80.45;;;20.17;;
64714;SDS011;51144;53.002;6.506;2022-10-29T06:29:32;101.32;;;22.20;;
64714;SDS011;51144;53.002;6.506;2022-10-29T06:31:57;54.60;;;19.27;;
64714;SDS011;51144;53.002;6.506;2022-10-29T06:34:23;70.28;;;19.67;;
64714;SDS011;51144;53.002;6.506;2022-10-29T06:36:49;76.68;;;19.95;;
64714;SDS011;51144;53.002;6.506;2022-10-29T06:39:14;76.80;;;20.73;;
64714;SDS011;51144;53.002;6.506;2022-10-29T06:41:40;99.00;;;22.90;;
64714;SDS011;51144;53.002;6.506;2022-10-29T06:44:05;80.53;;;20.48;;
64714;SDS011;51144;53.002;6.506;2022-10-29T06:46:31;75.28;;;21.20;;
64714;SDS011;51144;53.002;6.506;2022-10-29T06:48:58;61.33;;;19.58;;
64714;SDS011;51144;53.002;6.506;2022-10-29T06:51:25;73.05;;;21.40;;
64714;SDS011;51144;53.002;6.506;2022-10-29T06:53:50;58.58;;;22.45;;
64714;SDS011;51144;53.002;6.506;2022-10-29T06:56:18;61.88;;;21.05;;
64714;SDS011;51144;53.002;6.506;2022-10-29T06:58:43;63.70;;;20.75;;
64714;SDS011;51144;53.002;6.506;2022-10-29T07:01:09;72.25;;;23.02;;
64714;SDS011;51144;53.002;6.506;2022-10-29T07:03:35;62.00;;;20.80;;
64714;SDS011;51144;53.002;6.506;2022-10-29T07:06:00;70.15;;;22.50;;
64714;SDS011;51144;53.002;6.506;2022-10-29T07:08:26;56.83;;;19.63;;
64714;SDS011;51144;53.002;6.506;2022-10-29T07:10:53;46.47;;;19.55;;
64714;SDS011;51144;53.002;6.506;2022-10-29T07:13:19;47.58;;;20.30;;
64714;SDS011;51144;53.002;6.506;2022-10-29T07:15:44;63.00;;;22.75;;
64714;SDS011;51144;53.002;6.506;2022-10-29T07:18:10;55.55;;;22.65;;
64714;SDS011;51144;53.002;6.506;2022-10-29T07:20:38;44.10;;;21.38;;
64714;SDS011;51144;53.002;6.506;2022-10-29T07:23:05;46.90;;;23.50;;
64714;SDS011;51144;53.002;6.506;2022-10-29T07:25:31;44.58;;;21.55;;
64714;SDS011;51144;53.002;6.506;2022-10-29T07:28:04;61.70;;;24.10;;
64714;SDS011;51144;53.002;6.506;2022-10-29T07:30:32;49.03;;;21.75;;
64714;SDS011;51144;53.002;6.506;2022-10-29T07:32:58;51.97;;;24.05;;
64714;SDS011;51144;53.002;6.506;2022-10-29T07:35:24;57.03;;;23.15;;
64714;SDS011;51144;53.002;6.506;2022-10-29T07:37:49;43.05;;;22.52;;
64714;SDS011;51144;53.002;6.506;2022-10-29T07:40:15;43.22;;;21.35;;
64714;SDS011;51144;53.002;6.506;2022-10-29T07:42:41;39.00;;;19.15;;
64714;SDS011;51144;53.002;6.506;2022-10-29T07:45:06;47.33;;;20.50;;
64714;SDS011;51144;53.002;6.506;2022-10-29T07:47:32;41.25;;;21.05;;
64714;SDS011;51144;53.002;6.506;2022-10-29T07:49:59;50.22;;;20.90;;
64714;SDS011;51144;53.002;6.506;2022-10-29T07:52:24;53.28;;;23.15;;
64714;SDS011;51144;53.002;6.506;2022-10-29T07:54:50;42.38;;;21.65;;
64714;SDS011;51144;53.002;6.506;2022-10-29T07:57:16;44.42;;;22.52;;
64714;SDS011;51144;53.002;6.506;2022-10-29T07:59:41;44.97;;;23.70;;
64714;SDS011;51144;53.002;6.506;2022-10-29T08:02:10;45.67;;;21.80;;
64714;SDS011;51144;53.002;6.506;2022-10-29T08:04:35;43.58;;;23.60;;
64714;SDS011;51144;53.002;6.506;2022-10-29T08:07:01;52.95;;;25.08;;
64714;SDS011;51144;53.002;6.506;2022-10-29T08:09:27;46.15;;;22.70;;
64714;SDS011;51144;53.002;6.506;2022-10-29T08:11:52;49.38;;;24.00;;
64714;SDS011;51144;53.002;6.506;2022-10-29T08:14:18;50.55;;;23.25;;
64714;SDS011;51144;53.002;6.506;2022-10-29T08:16:43;47.28;;;23.15;;
64714;SDS011;51144;53.002;6.506;2022-10-29T08:19:09;47.28;;;23.15;;
64714;SDS011;51144;53.002;6.506;2022-10-29T08:21:34;41.08;;;23.63;;
64714;SDS011;51144;53.002;6.506;2022-10-29T08:24:00;50.47;;;23.85;;
64714;SDS011;51144;53.002;6.506;2022-10-29T08:26:26;45.75;;;22.17;;
64714;SDS011;51144;53.002;6.506;2022-10-29T08:28:51;44.70;;;22.98;;
64714;SDS011;51144;53.002;6.506;2022-10-29T08:31:17;48.33;;;21.77;;
64714;SDS011;51144;53.002;6.506;2022-10-29T08:33:43;37.30;;;20.90;;
64714;SDS011;51144;53.002;6.506;2022-10-29T08:36:11;49.25;;;22.42;;
64714;SDS011;51144;53.002;6.506;2022-10-29T08:38:37;39.58;;;20.33;;
64714;SDS011;51144;53.002;6.506;2022-10-29T08:44:18;43.40;;;20.83;;
64714;SDS011;51144;53.002;6.506;2022-10-29T08:50:10;43.03;;;21.50;;
64714;SDS011;51144;53.002;6.506;2022-10-29T08:52:39;43.13;;;20.23;;
64714;SDS011;51144;53.002;6.506;2022-10-29T08:57:56;38.22;;;18.25;;
64714;SDS011;51144;53.002;6.506;2022-10-29T09:00:31;39.63;;;18.98;;
64714;SDS011;51144;53.002;6.506;2022-10-29T09:03:07;39.10;;;19.83;;
64714;SDS011;51144;53.002;6.506;2022-10-29T09:05:46;42.07;;;19.33;;
64714;SDS011;51144;53.002;6.506;2022-10-29T09:08:25;41.00;;;19.65;;
64714;SDS011;51144;53.002;6.506;2022-10-29T09:14:02;40.70;;;18.80;;
64714;SDS011;51144;53.002;6.506;2022-10-29T09:26:56;37.08;;;17.35;;
64714;SDS011;51144;53.002;6.506;2022-10-29T09:32:03;34.30;;;15.15;;
64714;SDS011;51144;53.002;6.506;2022-10-29T09:34:40;32.67;;;15.80;;
64714;SDS011;51144;53.002;6.506;2022-10-29T09:37:27;33.65;;;15.43;;
64714;SDS011;51144;53.002;6.506;2022-10-29T09:40:04;32.60;;;15.93;;
64714;SDS011;51144;53.002;6.506;2022-10-29T09:42:40;31.85;;;15.35;;
64714;SDS011;51144;53.002;6.506;2022-10-29T09:45:11;31.33;;;15.60;;
64714;SDS011;51144;53.002;6.506;2022-10-29T09:47:50;33.83;;;16.27;;
64714;SDS011;51144;53.002;6.506;2022-10-29T09:52:52;36.53;;;17.98;;
64714;SDS011;51144;53.002;6.506;2022-10-29T09:55:27;34.22;;;17.05;;
64714;SDS011;51144;53.002;6.506;2022-10-29T09:57:58;36.35;;;16.02;;
64714;SDS011;51144;53.002;6.506;2022-10-29T10:00:25;34.83;;;15.57;;
64714;SDS011;51144;53.002;6.506;2022-10-29T10:03:00;35.25;;;15.73;;
64714;SDS011;51144;53.002;6.506;2022-10-29T10:05:31;42.85;;;16.35;;
64714;SDS011;51144;53.002;6.506;2022-10-29T10:08:05;29.38;;;16.58;;
64714;SDS011;51144;53.002;6.506;2022-10-29T10:10:47;34.70;;;15.80;;
64714;SDS011;51144;53.002;6.506;2022-10-29T10:13:16;34.63;;;16.33;;
64714;SDS011;51144;53.002;6.506;2022-10-29T10:15:47;25.95;;;14.13;;
64714;SDS011;51144;53.002;6.506;2022-10-29T10:18:20;30.30;;;16.75;;
64714;SDS011;51144;53.002;6.506;2022-10-29T10:20:58;29.60;;;15.35;;
64714;SDS011;51144;53.002;6.506;2022-10-29T10:23:28;33.33;;;13.85;;
64714;SDS011;51144;53.002;6.506;2022-10-29T10:26:04;24.45;;;14.18;;
64714;SDS011;51144;53.002;6.506;2022-10-29T10:29:02;22.65;;;14.70;;
64714;SDS011;51144;53.002;6.506;2022-10-29T10:31:29;26.50;;;14.45;;
64714;SDS011;51144;53.002;6.506;2022-10-29T10:33:54;27.73;;;15.63;;
64714;SDS011;51144;53.002;6.506;2022-10-29T10:36:23;33.70;;;16.25;;
64714;SDS011;51144;53.002;6.506;2022-10-29T10:38:51;27.02;;;13.88;;
64714;SDS011;51144;53.002;6.506;2022-10-29T10:41:26;28.15;;;14.02;;
64714;SDS011;51144;53.002;6.506;2022-10-29T10:43:55;24.25;;;12.32;;
64714;SDS011;51144;53.002;6.506;2022-10-29T10:46:28;20.77;;;11.75;;
64714;SDS011;51144;53.002;6.506;2022-10-29T10:49:05;29.42;;;13.75;;
64714;SDS011;51144;53.002;6.506;2022-10-29T10:51:37;19.92;;;10.00;;
64714;SDS011;51144;53.002;6.506;2022-10-29T10:56:54;22.35;;;9.73;;
64714;SDS011;51144;53.002;6.506;2022-10-29T10:59:21;20.40;;;10.73;;
64714;SDS011;51144;53.002;6.506;2022-10-29T11:02:07;19.92;;;10.75;;
64714;SDS011;51144;53.002;6.506;2022-10-29T11:04:55;20.30;;;12.10;;
64714;SDS011;51144;53.002;6.506;2022-10-29T11:07:31;24.30;;;11.55;;
64714;SDS011;51144;53.002;6.506;2022-10-29T11:10:01;18.13;;;11.50;;
64714;SDS011;51144;53.002;6.506;2022-10-29T11:12:35;26.40;;;13.13;;
64714;SDS011;51144;53.002;6.506;2022-10-29T11:15:09;24.20;;;11.50;;
64714;SDS011;51144;53.002;6.506;2022-10-29T11:17:48;24.13;;;10.85;;
64714;SDS011;51144;53.002;6.506;2022-10-29T11:20:20;20.98;;;9.93;;
64714;SDS011;51144;53.002;6.506;2022-10-29T11:25:40;25.13;;;10.70;;
64714;SDS011;51144;53.002;6.506;2022-10-29T11:28:19;27.35;;;10.70;;
64714;SDS011;51144;53.002;6.506;2022-10-29T11:30:55;16.58;;;9.93;;
64714;SDS011;51144;53.002;6.506;2022-10-29T11:36:22;21.95;;;9.38;;
64714;SDS011;51144;53.002;6.506;2022-10-29T11:38:51;17.15;;;9.77;;
64714;SDS011;51144;53.002;6.506;2022-10-29T11:41:46;16.43;;;9.23;;
64714;SDS011;51144;53.002;6.506;2022-10-29T11:44:13;17.83;;;9.00;;
64714;SDS011;51144;53.002;6.506;2022-10-29T11:52:53;25.77;;;9.60;;
64714;SDS011;51144;53.002;6.506;2022-10-29T11:58:54;16.95;;;9.40;;
64714;SDS011;51144;53.002;6.506;2022-10-29T12:01:35;18.13;;;8.73;;
64714;SDS011;51144;53.002;6.506;2022-10-29T12:09:55;15.70;;;7.95;;
64714;SDS011;51144;53.002;6.506;2022-10-29T12:18:56;18.70;;;8.40;;
64714;SDS011;51144;53.002;6.506;2022-10-29T12:21:45;20.58;;;8.00;;
64714;SDS011;51144;53.002;6.506;2022-10-29T12:27:23;21.23;;;8.48;;
64714;SDS011;51144;53.002;6.506;2022-10-29T12:30:06;18.02;;;7.85;;
64714;SDS011;51144;53.002;6.506;2022-10-29T12:40:23;22.15;;;9.23;;
64714;SDS011;51144;53.002;6.506;2022-10-29T12:42:52;20.08;;;8.82;;
64714;SDS011;51144;53.002;6.506;2022-10-29T12:50:43;18.13;;;9.02;;
64714;SDS011;51144;53.002;6.506;2022-10-29T12:56:10;20.55;;;9.80;;
64714;SDS011;51144;53.002;6.506;2022-10-29T12:58:47;24.27;;;9.75;;
64714;SDS011;51144;53.002;6.506;2022-10-29T13:03:59;27.67;;;9.77;;
64714;SDS011;51144;53.002;6.506;2022-10-29T13:09:26;20.25;;;9.52;;
64714;SDS011;51144;53.002;6.506;2022-10-29T13:19:58;20.27;;;8.68;;
64714;SDS011;51144;53.002;6.506;2022-10-29T13:22:32;20.00;;;9.63;;
64714;SDS011;51144;53.002;6.506;2022-10-29T13:30:37;25.17;;;10.07;;
64714;SDS011;51144;53.002;6.506;2022-10-29T13:38:18;20.95;;;9.57;;
64714;SDS011;51144;53.002;6.506;2022-10-29T13:43:26;25.08;;;11.50;;
64714;SDS011;51144;53.002;6.506;2022-10-29T13:46:00;18.25;;;9.07;;
64714;SDS011;51144;53.002;6.506;2022-10-29T13:48:38;17.70;;;8.82;;
64714;SDS011;51144;53.002;6.506;2022-10-29T13:51:09;25.20;;;9.82;;
64714;SDS011;51144;53.002;6.506;2022-10-29T13:53:58;22.55;;;11.20;;
64714;SDS011;51144;53.002;6.506;2022-10-29T13:56:43;16.30;;;8.38;;
64714;SDS011;51144;53.002;6.506;2022-10-29T13:59:22;20.52;;;9.43;;
64714;SDS011;51144;53.002;6.506;2022-10-29T14:01:59;21.42;;;10.23;;
64714;SDS011;51144;53.002;6.506;2022-10-29T14:04:40;22.55;;;9.25;;
64714;SDS011;51144;53.002;6.506;2022-10-29T14:07:13;22.48;;;8.88;;
64714;SDS011;51144;53.002;6.506;2022-10-29T14:12:25;17.25;;;9.27;;
64714;SDS011;51144;53.002;6.506;2022-10-29T14:15:00;20.05;;;8.93;;
64714;SDS011;51144;53.002;6.506;2022-10-29T14:17:30;37.50;;;33.35;;
64714;SDS011;51144;53.002;6.506;2022-10-29T14:19:56;21.08;;;9.52;;
64714;SDS011;51144;53.002;6.506;2022-10-29T14:22:37;16.83;;;7.70;;
64714;SDS011;51144;53.002;6.506;2022-10-29T14:28:14;17.65;;;9.80;;
64714;SDS011;51144;53.002;6.506;2022-10-29T14:30:43;18.85;;;10.15;;
64714;SDS011;51144;53.002;6.506;2022-10-29T14:35:46;21.77;;;10.15;;
64714;SDS011;51144;53.002;6.506;2022-10-29T14:38:12;23.73;;;10.02;;
64714;SDS011;51144;53.002;6.506;2022-10-29T14:40:39;20.63;;;11.10;;
64714;SDS011;51144;53.002;6.506;2022-10-29T14:43:16;22.17;;;9.90;;
64714;SDS011;51144;53.002;6.506;2022-10-29T14:45:48;14.30;;;8.95;;
64714;SDS011;51144;53.002;6.506;2022-10-29T14:48:14;21.08;;;10.98;;
64714;SDS011;51144;53.002;6.506;2022-10-29T14:50:49;88.40;;;64.60;;
64714;SDS011;51144;53.002;6.506;2022-10-29T14:53:31;82.03;;;38.03;;
64714;SDS011;51144;53.002;6.506;2022-10-29T14:55:59;212.48;;;160.95;;
64714;SDS011;51144;53.002;6.506;2022-10-29T14:58:31;19.67;;;10.43;;
64714;SDS011;51144;53.002;6.506;2022-10-29T15:03:29;27.85;;;10.40;;
64714;SDS011;51144;53.002;6.506;2022-10-29T15:08:42;24.85;;;10.52;;
64714;SDS011;51144;53.002;6.506;2022-10-29T15:17:05;19.88;;;10.55;;
64714;SDS011;51144;53.002;6.506;2022-10-29T15:19:32;27.33;;;10.88;;
64714;SDS011;51144;53.002;6.506;2022-10-29T15:21:58;21.67;;;10.68;;
64714;SDS011;51144;53.002;6.506;2022-10-29T15:24:23;23.52;;;11.00;;
64714;SDS011;51144;53.002;6.506;2022-10-29T15:26:51;22.92;;;11.10;;
64714;SDS011;51144;53.002;6.506;2022-10-29T15:29:26;19.48;;;10.98;;
64714;SDS011;51144;53.002;6.506;2022-10-29T15:31:54;22.38;;;11.25;;
64714;SDS011;51144;53.002;6.506;2022-10-29T15:34:30;21.90;;;11.50;;
64714;SDS011;51144;53.002;6.506;2022-10-29T15:40:26;21.75;;;11.60;;
64714;SDS011;51144;53.002;6.506;2022-10-29T15:42:37;22.15;;;11.93;;
64714;SDS011;51144;53.002;6.506;2022-10-29T15:47:32;20.75;;;12.60;;
64714;SDS011;51144;53.002;6.506;2022-10-29T15:49:58;25.33;;;11.60;;
64714;SDS011;51144;53.002;6.506;2022-10-29T15:52:25;19.17;;;10.77;;
64714;SDS011;51144;53.002;6.506;2022-10-29T15:55:01;24.88;;;11.73;;
64714;SDS011;51144;53.002;6.506;2022-10-29T15:57:36;20.23;;;10.63;;
64714;SDS011;51144;53.002;6.506;2022-10-29T16:00:03;23.98;;;11.13;;
64714;SDS011;51144;53.002;6.506;2022-10-29T16:02:32;23.67;;;11.15;;
64714;SDS011;51144;53.002;6.506;2022-10-29T16:04:58;28.00;;;11.88;;
64714;SDS011;51144;53.002;6.506;2022-10-29T16:07:23;20.40;;;10.50;;
64714;SDS011;51144;53.002;6.506;2022-10-29T16:09:50;18.17;;;10.27;;
64714;SDS011;51144;53.002;6.506;2022-10-29T16:12:18;24.75;;;10.60;;
64714;SDS011;51144;53.002;6.506;2022-10-29T16:14:43;22.30;;;10.70;;
64714;SDS011;51144;53.002;6.506;2022-10-29T16:17:13;20.85;;;10.48;;
64714;SDS011;51144;53.002;6.506;2022-10-29T16:19:40;28.05;;;12.20;;
64714;SDS011;51144;53.002;6.506;2022-10-29T16:22:10;20.33;;;10.93;;
64714;SDS011;51144;53.002;6.506;2022-10-29T16:24:38;19.83;;;10.02;;
64714;SDS011;51144;53.002;6.506;2022-10-29T16:27:08;23.33;;;10.60;;
64714;SDS011;51144;53.002;6.506;2022-10-29T16:29:38;21.10;;;10.38;;
64714;SDS011;51144;53.002;6.506;2022-10-29T16:32:04;24.58;;;11.88;;
64714;SDS011;51144;53.002;6.506;2022-10-29T16:34:29;26.88;;;9.30;;
64714;SDS011;51144;53.002;6.506;2022-10-29T16:36:55;18.88;;;9.55;;
64714;SDS011;51144;53.002;6.506;2022-10-29T16:39:21;17.30;;;11.10;;
64714;SDS011;51144;53.002;6.506;2022-10-29T16:41:46;19.05;;;10.88;;
64714;SDS011;51144;53.002;6.506;2022-10-29T16:44:12;18.23;;;9.95;;
64714;SDS011;51144;53.002;6.506;2022-10-29T16:46:38;16.77;;;8.63;;
64714;SDS011;51144;53.002;6.506;2022-10-29T16:49:03;23.85;;;12.55;;
64714;SDS011;51144;53.002;6.506;2022-10-29T16:51:29;18.48;;;9.02;;
64714;SDS011;51144;53.002;6.506;2022-10-29T16:53:54;16.27;;;8.65;;
64714;SDS011;51144;53.002;6.506;2022-10-29T16:56:20;18.38;;;10.07;;
64714;SDS011;51144;53.002;6.506;2022-10-29T16:58:46;20.02;;;10.30;;
64714;SDS011;51144;53.002;6.506;2022-10-29T17:01:11;17.77;;;10.18;;
64714;SDS011;51144;53.002;6.506;2022-10-29T17:03:37;23.20;;;9.65;;
64714;SDS011;51144;53.002;6.506;2022-10-29T17:06:06;20.65;;;8.95;;
64714;SDS011;51144;53.002;6.506;2022-10-29T17:08:33;18.90;;;9.55;;
64714;SDS011;51144;53.002;6.506;2022-10-29T17:11:01;23.70;;;9.07;;
64714;SDS011;51144;53.002;6.506;2022-10-29T17:13:30;17.73;;;9.45;;